sensor_id;sensor_type;location;lat;lon;timestamp;pressure;altitude;pressure_sealevel;temperature;humidity
74270;BME280;62754;48.252;11.654;2022-10-16T00:02:05;96195.78;;;12.82;89.48
74270;BME280;62754;48.252;11.654;2022-10-16T00:04:31;96201.72;;;12.82;89.33
74270;BME280;62754;48.252;11.654;2022-10-16T00:06:57;96202.72;;;12.81;89.28
74270;BME280;62754;48.252;11.654;2022-10-16T00:09:22;96205.28;;;12.81;89.18
74270;BME280;62754;48.252;11.654;2022-10-16T00:11:48;96198.59;;;12.79;89.37
74270;BME280;62754;48.252;11.654;2022-10-16T00:14:15;96210.44;;;12.72;89.45
74270;BME280;62754;48.252;11.654;2022-10-16T00:16:40;96216.97;;;12.76;89.52
74270;BME280;62754;48.252;11.654;2022-10-16T00:19:06;96209.50;;;12.82;89.06
74270;BME280;62754;48.252;11.654;2022-10-16T00:21:32;96212.50;;;12.78;89.42
74270;BME280;62754;48.252;11.654;2022-10-16T00:24:01;96201.19;;;12.79;89.17
74270;BME280;62754;48.252;11.654;2022-10-16T00:26:29;96199.97;;;12.73;89.32
74270;BME280;62754;48.252;11.654;2022-10-16T00:28:55;96201.03;;;12.71;89.52
74270;BME280;62754;48.252;11.654;2022-10-16T00:31:22;96191.50;;;12.71;89.44
74270;BME280;62754;48.252;11.654;2022-10-16T00:33:48;96197.78;;;12.69;89.36
74270;BME280;62754;48.252;11.654;2022-10-16T00:36:17;96191.13;;;12.66;89.35
74270;BME280;62754;48.252;11.654;2022-10-16T00:38:43;96191.63;;;12.60;89.72
74270;BME280;62754;48.252;11.654;2022-10-16T00:41:15;96192.19;;;12.64;89.61
74270;BME280;62754;48.252;11.654;2022-10-16T00:43:45;96200.09;;;12.62;89.79
74270;BME280;62754;48.252;11.654;2022-10-16T00:48:59;96194.88;;;12.53;89.97
74270;BME280;62754;48.252;11.654;2022-10-16T00:51:31;96202.13;;;12.59;89.87
74270;BME280;62754;48.252;11.654;2022-10-16T00:53:57;96205.38;;;12.61;89.80
74270;BME280;62754;48.252;11.654;2022-10-16T00:56:23;96209.06;;;12.58;89.81
74270;BME280;62754;48.252;11.654;2022-10-16T00:58:49;96208.63;;;12.63;89.38
74270;BME280;62754;48.252;11.654;2022-10-16T01:01:15;96217.31;;;12.52;89.58
74270;BME280;62754;48.252;11.654;2022-10-16T01:03:41;96215.66;;;12.51;89.92
74270;BME280;62754;48.252;11.654;2022-10-16T01:06:28;96212.84;;;12.54;89.66
74270;BME280;62754;48.252;11.654;2022-10-16T01:14:46;96210.00;;;12.57;89.35
74270;BME280;62754;48.252;11.654;2022-10-16T01:17:25;96219.91;;;12.52;89.45
74270;BME280;62754;48.252;11.654;2022-10-16T01:25:27;96233.75;;;12.41;89.82
74270;BME280;62754;48.252;11.654;2022-10-16T01:27:57;96234.03;;;12.48;89.53
74270;BME280;62754;48.252;11.654;2022-10-16T01:30:30;96227.09;;;12.49;89.39
74270;BME280;62754;48.252;11.654;2022-10-16T01:33:08;96223.31;;;12.53;89.35
74270;BME280;62754;48.252;11.654;2022-10-16T01:35:41;96217.69;;;12.48;89.32
74270;BME280;62754;48.252;11.654;2022-10-16T01:38:16;96222.63;;;12.51;89.38
74270;BME280;62754;48.252;11.654;2022-10-16T01:40:51;96219.06;;;12.42;89.65
74270;BME280;62754;48.252;11.654;2022-10-16T01:43:27;96214.44;;;12.46;89.42
74270;BME280;62754;48.252;11.654;2022-10-16T01:45:56;96209.56;;;12.43;89.23
74270;BME280;62754;48.252;11.654;2022-10-16T01:48:23;96216.31;;;12.43;89.47
74270;BME280;62754;48.252;11.654;2022-10-16T01:50:55;96219.88;;;12.43;89.69
74270;BME280;62754;48.252;11.654;2022-10-16T01:53:23;96217.41;;;12.41;89.39
74270;BME280;62754;48.252;11.654;2022-10-16T01:55:52;96217.41;;;12.41;89.67
74270;BME280;62754;48.252;11.654;2022-10-16T01:58:20;96218.78;;;12.45;89.24
74270;BME280;62754;48.252;11.654;2022-10-16T02:00:48;96222.47;;;12.43;89.47
74270;BME280;62754;48.252;11.654;2022-10-16T02:03:16;96215.81;;;12.50;89.08
74270;BME280;62754;48.252;11.654;2022-10-16T02:05:46;96208.75;;;12.52;89.03
74270;BME280;62754;48.252;11.654;2022-10-16T02:08:13;96205.34;;;12.51;88.91
74270;BME280;62754;48.252;11.654;2022-10-16T02:10:39;96198.66;;;12.49;88.83
74270;BME280;62754;48.252;11.654;2022-10-16T02:15:33;96200.41;;;12.38;89.10
74270;BME280;62754;48.252;11.654;2022-10-16T02:17:59;96208.94;;;12.29;89.41
74270;BME280;62754;48.252;11.654;2022-10-16T02:20:27;96207.19;;;12.30;89.23
74270;BME280;62754;48.252;11.654;2022-10-16T02:22:56;96216.44;;;12.32;89.16
74270;BME280;62754;48.252;11.654;2022-10-16T02:25:29;96211.09;;;12.24;89.30
74270;BME280;62754;48.252;11.654;2022-10-16T02:28:09;96216.41;;;12.23;89.25
74270;BME280;62754;48.252;11.654;2022-10-16T02:30:50;96216.25;;;12.24;89.08
74270;BME280;62754;48.252;11.654;2022-10-16T02:33:17;96219.09;;;12.21;89.10
74270;BME280;62754;48.252;11.654;2022-10-16T02:35:46;96220.56;;;12.14;89.30
74270;BME280;62754;48.252;11.654;2022-10-16T02:38:14;96226.69;;;12.13;89.29
74270;BME280;62754;48.252;11.654;2022-10-16T02:40:41;96227.59;;;12.03;89.50
74270;BME280;62754;48.252;11.654;2022-10-16T02:43:07;96219.28;;;11.99;89.86
74270;BME280;62754;48.252;11.654;2022-10-16T02:45:34;96225.94;;;12.02;89.59
74270;BME280;62754;48.252;11.654;2022-10-16T02:48:00;96222.69;;;12.00;89.97
74270;BME280;62754;48.252;11.654;2022-10-16T02:50:25;96233.28;;;11.97;89.73
74270;BME280;62754;48.252;11.654;2022-10-16T02:52:51;96238.66;;;11.93;89.94
74270;BME280;62754;48.252;11.654;2022-10-16T02:55:17;96225.34;;;11.88;90.14
74270;BME280;62754;48.252;11.654;2022-10-16T02:57:43;96223.75;;;11.97;89.83
74270;BME280;62754;48.252;11.654;2022-10-16T03:00:11;96231.34;;;11.89;89.94
74270;BME280;62754;48.252;11.654;2022-10-16T03:02:37;96226.53;;;11.84;90.15
74270;BME280;62754;48.252;11.654;2022-10-16T03:05:03;96226.53;;;11.84;90.27
74270;BME280;62754;48.252;11.654;2022-10-16T03:07:29;96229.25;;;11.83;90.13
74270;BME280;62754;48.252;11.654;2022-10-16T03:09:55;96223.59;;;11.89;89.85
74270;BME280;62754;48.252;11.654;2022-10-16T03:12:21;96224.59;;;11.77;89.93
74270;BME280;62754;48.252;11.654;2022-10-16T03:14:47;96236.34;;;11.90;89.54
74270;BME280;62754;48.252;11.654;2022-10-16T03:17:13;96226.41;;;11.86;89.87
74270;BME280;62754;48.252;11.654;2022-10-16T03:19:39;96222.88;;;11.87;89.81
74270;BME280;62754;48.252;11.654;2022-10-16T03:22:04;96224.44;;;11.78;90.14
74270;BME280;62754;48.252;11.654;2022-10-16T03:24:30;96222.94;;;11.76;90.12
74270;BME280;62754;48.252;11.654;2022-10-16T03:26:56;96228.13;;;11.76;90.21
74270;BME280;62754;48.252;11.654;2022-10-16T03:29:22;96239.94;;;11.78;90.10
74270;BME280;62754;48.252;11.654;2022-10-16T03:31:47;96239.56;;;11.83;89.79
74270;BME280;62754;48.252;11.654;2022-10-16T03:34:13;96231.97;;;11.81;89.46
74270;BME280;62754;48.252;11.654;2022-10-16T03:36:39;96241.38;;;11.71;89.83
74270;BME280;62754;48.252;11.654;2022-10-16T03:39:05;96232.59;;;11.74;90.01
74270;BME280;62754;48.252;11.654;2022-10-16T03:41:30;96230.44;;;11.79;89.69
74270;BME280;62754;48.252;11.654;2022-10-16T03:43:56;96231.97;;;11.81;89.90
74270;BME280;62754;48.252;11.654;2022-10-16T03:46:22;96236.22;;;11.92;89.50
74270;BME280;62754;48.252;11.654;2022-10-16T03:48:48;96240.88;;;11.98;88.95
74270;BME280;62754;48.252;11.654;2022-10-16T03:51:13;96244.66;;;11.94;89.31
74270;BME280;62754;48.252;11.654;2022-10-16T03:53:39;96243.03;;;11.93;89.41
74270;BME280;62754;48.252;11.654;2022-10-16T03:56:05;96253.38;;;11.93;89.51
74270;BME280;62754;48.252;11.654;2022-10-16T03:58:31;96249.56;;;11.97;89.30
74270;BME280;62754;48.252;11.654;2022-10-16T04:00:57;96260.34;;;12.02;88.97
74270;BME280;62754;48.252;11.654;2022-10-16T04:03:23;96256.38;;;11.98;89.02
74270;BME280;62754;48.252;11.654;2022-10-16T04:05:49;96258.19;;;12.07;88.87
74270;BME280;62754;48.252;11.654;2022-10-16T04:08:15;96247.03;;;12.07;88.72
74270;BME280;62754;48.252;11.654;2022-10-16T04:10:42;96255.72;;;12.06;88.79
74270;BME280;62754;48.252;11.654;2022-10-16T04:13:08;96255.88;;;12.04;89.27
74270;BME280;62754;48.252;11.654;2022-10-16T04:15:34;96249.56;;;11.97;89.47
74270;BME280;62754;48.252;11.654;2022-10-16T04:17:59;96250.91;;;11.91;89.69
74270;BME280;62754;48.252;11.654;2022-10-16T04:20:25;96254.22;;;12.03;89.23
74270;BME280;62754;48.252;11.654;2022-10-16T04:22:51;96249.44;;;11.99;89.12
74270;BME280;62754;48.252;11.654;2022-10-16T04:25:17;96238.75;;;12.03;89.06
74270;BME280;62754;48.252;11.654;2022-10-16T04:27:42;96254.50;;;12.00;89.03
74270;BME280;62754;48.252;11.654;2022-10-16T04:30:08;96243.97;;;11.92;89.30
74270;BME280;62754;48.252;11.654;2022-10-16T04:32:34;96246.31;;;11.95;89.12
74270;BME280;62754;48.252;11.654;2022-10-16T04:35:00;96241.97;;;11.96;88.96
74270;BME280;62754;48.252;11.654;2022-10-16T04:37:26;96243.34;;;12.00;89.00
74270;BME280;62754;48.252;11.654;2022-10-16T04:39:53;96234.22;;;11.96;88.77
74270;BME280;62754;48.252;11.654;2022-10-16T04:42:20;96240.88;;;11.98;88.77
74270;BME280;62754;48.252;11.654;2022-10-16T04:44:46;96248.50;;;12.00;88.64
74270;BME280;62754;48.252;11.654;2022-10-16T04:47:13;96244.91;;;11.91;88.64
74270;BME280;62754;48.252;11.654;2022-10-16T04:49:39;96257.56;;;11.94;88.51
74270;BME280;62754;48.252;11.654;2022-10-16T04:52:05;96262.06;;;11.92;88.57
74270;BME280;62754;48.252;11.654;2022-10-16T04:54:31;96265.75;;;11.99;88.09
74270;BME280;62754;48.252;11.654;2022-10-16T04:56:57;96265.06;;;11.97;87.96
74270;BME280;62754;48.252;11.654;2022-10-16T04:59:22;96264.00;;;12.00;87.71
74270;BME280;62754;48.252;11.654;2022-10-16T05:01:48;96254.03;;;11.95;87.80
74270;BME280;62754;48.252;11.654;2022-10-16T05:04:15;96255.44;;;11.99;87.52
74270;BME280;62754;48.252;11.654;2022-10-16T05:06:41;96252.84;;;11.99;87.73
74270;BME280;62754;48.252;11.654;2022-10-16T05:09:07;96246.59;;;12.02;87.64
74270;BME280;62754;48.252;11.654;2022-10-16T05:11:34;96253.59;;;12.11;87.23
74270;BME280;62754;48.252;11.654;2022-10-16T05:14:00;96242.13;;;12.04;87.43
74270;BME280;62754;48.252;11.654;2022-10-16T05:16:26;96246.31;;;11.95;88.31
74270;BME280;62754;48.252;11.654;2022-10-16T05:18:52;96256.38;;;11.98;87.74
74270;BME280;62754;48.252;11.654;2022-10-16T05:21:19;96257.91;;;12.01;87.77
74270;BME280;62754;48.252;11.654;2022-10-16T05:23:45;96253.72;;;12.09;87.16
74270;BME280;62754;48.252;11.654;2022-10-16T05:26:11;96249.63;;;12.07;87.33
74270;BME280;62754;48.252;11.654;2022-10-16T05:28:37;96243.00;;;12.14;87.09
74270;BME280;62754;48.252;11.654;2022-10-16T05:31:06;96250.81;;;12.23;86.43
74270;BME280;62754;48.252;11.654;2022-10-16T05:33:32;96248.59;;;12.19;86.71
74270;BME280;62754;48.252;11.654;2022-10-16T05:36:06;96261.25;;;12.22;86.99
74270;BME280;62754;48.252;11.654;2022-10-16T05:38:32;96270.22;;;12.18;87.09
74270;BME280;62754;48.252;11.654;2022-10-16T05:40:58;96280.97;;;12.23;86.88
74270;BME280;62754;48.252;11.654;2022-10-16T05:43:23;96279.22;;;12.23;86.45
74270;BME280;62754;48.252;11.654;2022-10-16T05:45:56;96272.41;;;12.22;86.45
74270;BME280;62754;48.252;11.654;2022-10-16T05:48:23;96275.81;;;12.23;86.46
74270;BME280;62754;48.252;11.654;2022-10-16T05:50:56;96283.41;;;12.24;86.55
74270;BME280;62754;48.252;11.654;2022-10-16T05:53:22;96282.75;;;12.22;86.90
74270;BME280;62754;48.252;11.654;2022-10-16T05:55:52;96281.81;;;12.23;86.99
74270;BME280;62754;48.252;11.654;2022-10-16T05:58:17;96279.34;;;12.22;86.75
74270;BME280;62754;48.252;11.654;2022-10-16T06:00:43;96278.53;;;12.21;86.82
74270;BME280;62754;48.252;11.654;2022-10-16T06:03:09;96279.06;;;12.25;86.71
74270;BME280;62754;48.252;11.654;2022-10-16T06:05:35;96275.66;;;12.24;87.04
74270;BME280;62754;48.252;11.654;2022-10-16T06:08:00;96284.38;;;12.23;86.94
74270;BME280;62754;48.252;11.654;2022-10-16T06:10:26;96283.56;;;12.23;87.02
74270;BME280;62754;48.252;11.654;2022-10-16T06:12:52;96286.28;;;12.21;86.96
74270;BME280;62754;48.252;11.654;2022-10-16T06:15:17;96291.97;;;12.15;86.96
74270;BME280;62754;48.252;11.654;2022-10-16T06:17:43;96294.56;;;12.25;86.71
74270;BME280;62754;48.252;11.654;2022-10-16T06:20:09;96308.91;;;12.08;87.43
74270;BME280;62754;48.252;11.654;2022-10-16T06:22:35;96304.53;;;12.09;87.40
74270;BME280;62754;48.252;11.654;2022-10-16T06:25:00;96308.00;;;12.19;86.95
74270;BME280;62754;48.252;11.654;2022-10-16T06:27:26;96313.81;;;12.11;86.89
74270;BME280;62754;48.252;11.654;2022-10-16T06:29:52;96307.00;;;12.10;86.94
74270;BME280;62754;48.252;11.654;2022-10-16T06:32:18;96311.91;;;12.13;87.16
74270;BME280;62754;48.252;11.654;2022-10-16T06:34:43;96311.53;;;12.18;86.80
74270;BME280;62754;48.252;11.654;2022-10-16T06:37:10;96320.84;;;12.09;87.02
74270;BME280;62754;48.252;11.654;2022-10-16T06:39:35;96320.94;;;12.19;86.62
74270;BME280;62754;48.252;11.654;2022-10-16T06:42:01;96321.59;;;12.21;86.45
74270;BME280;62754;48.252;11.654;2022-10-16T06:44:27;96330.88;;;12.23;86.51
74270;BME280;62754;48.252;11.654;2022-10-16T06:46:53;96328.97;;;12.25;86.34
74270;BME280;62754;48.252;11.654;2022-10-16T06:49:18;96338.06;;;12.20;86.53
74270;BME280;62754;48.252;11.654;2022-10-16T06:51:44;96335.22;;;12.23;86.49
74270;BME280;62754;48.252;11.654;2022-10-16T06:54:10;96339.13;;;12.17;86.90
74270;BME280;62754;48.252;11.654;2022-10-16T06:56:36;96338.63;;;12.23;86.81
74270;BME280;62754;48.252;11.654;2022-10-16T06:59:02;96340.50;;;12.21;86.79
74270;BME280;62754;48.252;11.654;2022-10-16T07:01:28;96339.47;;;12.24;86.91
74270;BME280;62754;48.252;11.654;2022-10-16T07:03:54;96351.41;;;12.25;86.95
74270;BME280;62754;48.252;11.654;2022-10-16T07:06:23;96355.75;;;12.24;87.07
74270;BME280;62754;48.252;11.654;2022-10-16T07:08:49;96348.25;;;12.21;86.95
74270;BME280;62754;48.252;11.654;2022-10-16T07:11:18;96362.06;;;12.31;86.85
74270;BME280;62754;48.252;11.654;2022-10-16T07:13:46;96366.69;;;12.28;86.90
74270;BME280;62754;48.252;11.654;2022-10-16T07:16:14;96369.84;;;12.31;86.97
74270;BME280;62754;48.252;11.654;2022-10-16T07:18:41;96370.63;;;12.32;86.97
74270;BME280;62754;48.252;11.654;2022-10-16T07:21:13;96365.09;;;12.36;87.03
74270;BME280;62754;48.252;11.654;2022-10-16T07:23:40;96365.28;;;12.45;86.55
74270;BME280;62754;48.252;11.654;2022-10-16T07:26:06;96372.25;;;12.54;86.40
74270;BME280;62754;48.252;11.654;2022-10-16T07:28:33;96367.97;;;12.64;86.02
74270;BME280;62754;48.252;11.654;2022-10-16T07:31:02;96376.44;;;12.75;85.24
74270;BME280;62754;48.252;11.654;2022-10-16T07:33:29;96381.84;;;12.93;84.84
74270;BME280;62754;48.252;11.654;2022-10-16T07:35:55;96371.75;;;12.90;84.88
74270;BME280;62754;48.252;11.654;2022-10-16T07:38:21;96386.66;;;13.07;84.60
74270;BME280;62754;48.252;11.654;2022-10-16T07:40:47;96387.28;;;13.20;84.44
74270;BME280;62754;48.252;11.654;2022-10-16T07:43:14;96390.03;;;13.28;83.44
74270;BME280;62754;48.252;11.654;2022-10-16T07:45:46;96387.75;;;13.35;83.35
74270;BME280;62754;48.252;11.654;2022-10-16T07:48:12;96387.19;;;13.41;82.91
74270;BME280;62754;48.252;11.654;2022-10-16T07:50:44;96404.38;;;13.42;82.99
74270;BME280;62754;48.252;11.654;2022-10-16T07:53:10;96398.13;;;13.54;82.96
74270;BME280;62754;48.252;11.654;2022-10-16T07:55:36;96404.84;;;13.66;81.98
74270;BME280;62754;48.252;11.654;2022-10-16T07:58:02;96403.63;;;13.80;81.80
74270;BME280;62754;48.252;11.654;2022-10-16T08:00:28;96410.75;;;13.97;81.45
74270;BME280;62754;48.252;11.654;2022-10-16T08:02:54;96411.25;;;14.10;81.04
74270;BME280;62754;48.252;11.654;2022-10-16T08:05:20;96402.66;;;14.29;80.39
74270;BME280;62754;48.252;11.654;2022-10-16T08:07:49;96405.41;;;14.47;79.48
74270;BME280;62754;48.252;11.654;2022-10-16T08:10:19;96406.63;;;14.62;78.02
74270;BME280;62754;48.252;11.654;2022-10-16T08:12:45;96418.59;;;14.82;77.70
74270;BME280;62754;48.252;11.654;2022-10-16T08:15:11;96413.88;;;14.95;77.30
74270;BME280;62754;48.252;11.654;2022-10-16T08:17:37;96413.81;;;15.14;76.23
74270;BME280;62754;48.252;11.654;2022-10-16T08:20:04;96412.69;;;15.26;75.17
74270;BME280;62754;48.252;11.654;2022-10-16T08:22:30;96410.88;;;15.37;75.33
74270;BME280;62754;48.252;11.654;2022-10-16T08:24:56;96417.91;;;15.54;74.87
74270;BME280;62754;48.252;11.654;2022-10-16T08:27:21;96422.06;;;15.64;73.97
74270;BME280;62754;48.252;11.654;2022-10-16T08:29:48;96413.94;;;15.77;73.30
74270;BME280;62754;48.252;11.654;2022-10-16T08:32:14;96422.88;;;15.92;73.78
74270;BME280;62754;48.252;11.654;2022-10-16T08:34:40;96429.63;;;16.03;72.79
74270;BME280;62754;48.252;11.654;2022-10-16T08:37:06;96427.53;;;16.06;72.74
74270;BME280;62754;48.252;11.654;2022-10-16T08:39:32;96432.25;;;16.20;72.68
74270;BME280;62754;48.252;11.654;2022-10-16T08:47:18;96435.13;;;16.71;71.69
74270;BME280;62754;48.252;11.654;2022-10-16T08:49:55;96429.34;;;16.85;70.88
74270;BME280;62754;48.252;11.654;2022-10-16T08:52:30;96431.75;;;17.04;70.80
74270;BME280;62754;48.252;11.654;2022-10-16T08:54:57;96433.97;;;17.25;70.25
74270;BME280;62754;48.252;11.654;2022-10-16T08:57:25;96445.44;;;17.40;67.69
74270;BME280;62754;48.252;11.654;2022-10-16T08:59:51;96443.34;;;17.43;67.75
74270;BME280;62754;48.252;11.654;2022-10-16T09:02:33;96438.53;;;17.56;67.92
74270;BME280;62754;48.252;11.654;2022-10-16T09:07:53;96445.09;;;17.69;66.48
74270;BME280;62754;48.252;11.654;2022-10-16T09:10:57;96447.78;;;17.93;66.73
74270;BME280;62754;48.252;11.654;2022-10-16T09:13:30;96448.47;;;18.11;66.86
74270;BME280;62754;48.252;11.654;2022-10-16T09:21:24;96437.13;;;18.61;64.34
74270;BME280;62754;48.252;11.654;2022-10-16T09:23:51;96435.00;;;18.80;64.57
74270;BME280;62754;48.252;11.654;2022-10-16T09:26:17;96441.66;;;18.91;63.81
74270;BME280;62754;48.252;11.654;2022-10-16T09:28:43;96438.22;;;18.98;62.51
74270;BME280;62754;48.252;11.654;2022-10-16T09:31:15;96452.56;;;19.19;63.23
74270;BME280;62754;48.252;11.654;2022-10-16T09:33:42;96446.47;;;19.34;61.44
74270;BME280;62754;48.252;11.654;2022-10-16T09:36:10;96447.78;;;19.38;60.64
74270;BME280;62754;48.252;11.654;2022-10-16T09:38:37;96448.06;;;19.52;60.96
74270;BME280;62754;48.252;11.654;2022-10-16T09:41:22;96442.91;;;19.74;59.24
74270;BME280;62754;48.252;11.654;2022-10-16T09:43:59;96449.03;;;19.89;58.82
74270;BME280;62754;48.252;11.654;2022-10-16T09:46:31;96451.91;;;20.03;58.31
74270;BME280;62754;48.252;11.654;2022-10-16T09:49:24;96458.03;;;20.18;55.67
74270;BME280;62754;48.252;11.654;2022-10-16T09:51:51;96464.22;;;20.25;55.30
74270;BME280;62754;48.252;11.654;2022-10-16T09:54:27;96466.63;;;20.34;54.52
74270;BME280;62754;48.252;11.654;2022-10-16T09:57:04;96471.47;;;20.46;54.98
74270;BME280;62754;48.252;11.654;2022-10-16T09:59:31;96468.44;;;20.57;54.38
74270;BME280;62754;48.252;11.654;2022-10-16T10:02:01;96468.38;;;20.65;54.48
74270;BME280;62754;48.252;11.654;2022-10-16T10:04:39;96476.63;;;20.76;51.83
74270;BME280;62754;48.252;11.654;2022-10-16T10:07:17;96461.31;;;20.88;51.88
74270;BME280;62754;48.252;11.654;2022-10-16T10:09:44;96467.28;;;20.97;51.38
74270;BME280;62754;48.252;11.654;2022-10-16T10:12:30;96460.31;;;21.12;49.91
74270;BME280;62754;48.252;11.654;2022-10-16T10:15:13;96459.03;;;21.22;51.47
74270;BME280;62754;48.252;11.654;2022-10-16T10:17:56;96452.63;;;21.25;51.56
74270;BME280;62754;48.252;11.654;2022-10-16T10:20:31;96455.88;;;21.27;50.29
74270;BME280;62754;48.252;11.654;2022-10-16T10:22:57;96459.94;;;21.44;49.77
74270;BME280;62754;48.252;11.654;2022-10-16T10:25:40;96461.03;;;21.64;49.21
74270;BME280;62754;48.252;11.654;2022-10-16T10:28:27;96463.00;;;21.77;47.72
74270;BME280;62754;48.252;11.654;2022-10-16T10:36:05;96457.78;;;22.13;45.72
74270;BME280;62754;48.252;11.654;2022-10-16T10:50:57;96459.00;;;22.95;44.45
74270;BME280;62754;48.252;11.654;2022-10-16T10:59:30;96456.44;;;23.02;43.61
74270;BME280;62754;48.252;11.654;2022-10-16T11:09:51;96458.44;;;23.00;43.79
74270;BME280;62754;48.252;11.654;2022-10-16T11:12:28;96454.00;;;23.00;44.09
74270;BME280;62754;48.252;11.654;2022-10-16T11:17:49;96450.22;;;23.09;44.14
74270;BME280;62754;48.252;11.654;2022-10-16T11:22:53;96456.72;;;23.13;40.55
74270;BME280;62754;48.252;11.654;2022-10-16T11:25:28;96456.34;;;23.16;40.55
74270;BME280;62754;48.252;11.654;2022-10-16T11:28:08;96455.00;;;23.27;40.39
74270;BME280;62754;48.252;11.654;2022-10-16T11:39:26;96454.03;;;23.62;39.45
74270;BME280;62754;48.252;11.654;2022-10-16T11:41:56;96455.25;;;23.66;40.64
74270;BME280;62754;48.252;11.654;2022-10-16T11:50:42;96454.22;;;23.67;40.07
74270;BME280;62754;48.252;11.654;2022-10-16T11:55:56;96448.28;;;23.93;38.39
74270;BME280;62754;48.252;11.654;2022-10-16T12:00:55;96440.16;;;23.95;37.72
74270;BME280;62754;48.252;11.654;2022-10-16T12:03:31;96448.53;;;24.11;38.23
74270;BME280;62754;48.252;11.654;2022-10-16T12:08:54;96443.28;;;24.11;37.95
74270;BME280;62754;48.252;11.654;2022-10-16T12:13:49;96439.81;;;24.11;37.20
74270;BME280;62754;48.252;11.654;2022-10-16T12:18:41;96452.03;;;24.18;35.36
74270;BME280;62754;48.252;11.654;2022-10-16T12:21:08;96453.22;;;24.09;36.71
74270;BME280;62754;48.252;11.654;2022-10-16T12:23:39;96445.00;;;24.45;36.90
74270;BME280;62754;48.252;11.654;2022-10-16T12:26:12;96440.97;;;24.69;35.81
74270;BME280;62754;48.252;11.654;2022-10-16T12:28:37;96440.81;;;24.90;36.35
74270;BME280;62754;48.252;11.654;2022-10-16T12:31:06;96443.06;;;24.87;34.90
74270;BME280;62754;48.252;11.654;2022-10-16T12:33:34;96437.09;;;25.31;34.93
74270;BME280;62754;48.252;11.654;2022-10-16T12:36:04;96443.88;;;25.91;32.65
74270;BME280;62754;48.252;11.654;2022-10-16T12:38:37;96440.72;;;26.14;32.31
74270;BME280;62754;48.252;11.654;2022-10-16T12:41:06;96432.97;;;26.57;31.57
74270;BME280;62754;48.252;11.654;2022-10-16T12:43:41;96432.84;;;26.70;31.28
74270;BME280;62754;48.252;11.654;2022-10-16T12:48:37;96427.38;;;26.96;31.58
74270;BME280;62754;48.252;11.654;2022-10-16T12:53:46;96435.94;;;27.59;30.64
74270;BME280;62754;48.252;11.654;2022-10-16T12:56:25;96432.25;;;28.15;29.74
74270;BME280;62754;48.252;11.654;2022-10-16T13:05:01;96439.44;;;27.35;29.77
74270;BME280;62754;48.252;11.654;2022-10-16T13:07:48;96428.19;;;26.96;30.75
74270;BME280;62754;48.252;11.654;2022-10-16T13:10:32;96427.75;;;26.75;31.33
74270;BME280;62754;48.252;11.654;2022-10-16T13:19:46;96431.31;;;25.80;34.48
74270;BME280;62754;48.252;11.654;2022-10-16T13:22:28;96429.53;;;25.60;34.78
74270;BME280;62754;48.252;11.654;2022-10-16T13:28:08;96433.66;;;26.01;33.90
74270;BME280;62754;48.252;11.654;2022-10-16T13:30:42;96442.06;;;25.85;34.25
74270;BME280;62754;48.252;11.654;2022-10-16T13:33:19;96446.22;;;25.48;34.25
74270;BME280;62754;48.252;11.654;2022-10-16T13:35:50;96435.72;;;25.15;35.73
74270;BME280;62754;48.252;11.654;2022-10-16T13:38:31;96443.22;;;25.18;34.26
74270;BME280;62754;48.252;11.654;2022-10-16T13:40:59;96454.78;;;24.84;35.20
74270;BME280;62754;48.252;11.654;2022-10-16T13:46:13;96438.75;;;24.59;39.31
74270;BME280;62754;48.252;11.654;2022-10-16T13:48:39;96452.13;;;24.64;40.08
74270;BME280;62754;48.252;11.654;2022-10-16T13:51:17;96448.84;;;24.49;40.65
74270;BME280;62754;48.252;11.654;2022-10-16T13:53:43;96450.91;;;24.54;40.52
74270;BME280;62754;48.252;11.654;2022-10-16T13:56:12;96456.34;;;24.33;41.74
74270;BME280;62754;48.252;11.654;2022-10-16T13:58:38;96462.16;;;24.15;41.37
74270;BME280;62754;48.252;11.654;2022-10-16T14:01:11;96461.47;;;24.06;42.01
74270;BME280;62754;48.252;11.654;2022-10-16T14:03:41;96463.03;;;23.94;42.66
74270;BME280;62754;48.252;11.654;2022-10-16T14:06:12;96468.94;;;23.96;42.61
74270;BME280;62754;48.252;11.654;2022-10-16T14:08:43;96467.16;;;24.03;41.70
74270;BME280;62754;48.252;11.654;2022-10-16T14:11:10;96464.50;;;24.03;42.05
74270;BME280;62754;48.252;11.654;2022-10-16T14:13:38;96472.00;;;24.00;41.97
74270;BME280;62754;48.252;11.654;2022-10-16T14:16:10;96465.66;;;23.81;42.02
74270;BME280;62754;48.252;11.654;2022-10-16T14:18:38;96463.00;;;23.75;43.40
74270;BME280;62754;48.252;11.654;2022-10-16T14:21:12;96458.09;;;23.71;42.03
74270;BME280;62754;48.252;11.654;2022-10-16T14:23:40;96471.88;;;23.73;41.82
74270;BME280;62754;48.252;11.654;2022-10-16T14:26:13;96461.53;;;23.65;42.18
74270;BME280;62754;48.252;11.654;2022-10-16T14:28:40;96459.03;;;23.57;42.65
74270;BME280;62754;48.252;11.654;2022-10-16T14:31:26;96456.66;;;23.62;43.06
74270;BME280;62754;48.252;11.654;2022-10-16T14:33:53;96454.22;;;23.61;43.16
74270;BME280;62754;48.252;11.654;2022-10-16T14:36:18;96461.75;;;23.36;43.67
74270;BME280;62754;48.252;11.654;2022-10-16T14:39:04;96459.72;;;23.38;43.61
74270;BME280;62754;48.252;11.654;2022-10-16T14:41:32;96461.91;;;23.35;43.00
74270;BME280;62754;48.252;11.654;2022-10-16T14:44:06;96455.38;;;23.24;43.87
74270;BME280;62754;48.252;11.654;2022-10-16T14:46:33;96455.09;;;23.12;44.44
74270;BME280;62754;48.252;11.654;2022-10-16T14:49:13;96460.38;;;23.12;44.22
74270;BME280;62754;48.252;11.654;2022-10-16T14:51:41;96460.69;;;23.03;44.57
74270;BME280;62754;48.252;11.654;2022-10-16T14:54:09;96464.78;;;22.84;45.69
74270;BME280;62754;48.252;11.654;2022-10-16T14:56:51;96468.31;;;22.70;46.29
74270;BME280;62754;48.252;11.654;2022-10-16T14:59:20;96471.97;;;22.54;46.69